^^
Station Historical Data
Daily Summary for October 14, 2017 Units:  English    Metric   Both
« Previous Day
Next Day »
Daily Weekly Monthly Yearly Custom
  High: Low: Average:
Temperature: 71.2 °F 59.3 °F 64.3 °F
Dew Point: 63.9 °F 57.4 °F 60.9 °F
Humidity: 97% 76% 89%
Wind Speed: 3.0mph 0.0mph 0.2mph
Wind Gust: 7.0mph - -
Wind- - West
Pressure: 30.34 in 30.16 in -
Precipitation: 0.02 in    
Historical Graphs
 
 
Tabular Data for October 14, 2017
Time Temperature Dew Point Pressure Wind Wind Speed Wind Gust Humidity Rainfall Rate (Hourly) Conditions
00:00 60.3 °F 57.4 °F 30.34 in Calm     90% 0.00 in OVC
00:15 60.3 °F 57.4 °F 30.34 in Calm     90% 0.00 in -DZ
00:30 60.0 °F 57.7 °F 30.33 in Calm   1.0 mph 92% 0.00 in -DZ
00:45 59.6 °F 57.6 °F 30.33 in Calm   1.0 mph 93% 0.00 in -DZ
01:00 59.3 °F 57.6 °F 30.33 in Calm   1.0 mph 94% 0.00 in -DZ
02:15 59.3 °F 57.9 °F 30.31 in Calm   2.0 mph 95% 0.00 in -DZ
02:30 59.4 °F 58.2 °F 30.30 in Calm     96% 0.01 in -DZ
02:45 59.4 °F 58.3 °F 30.30 in Calm   1.0 mph 96% 0.00 in -DZ
03:00 59.4 °F 58.3 °F 30.30 in Calm     96% 0.00 in -DZ
03:15 59.5 °F 58.4 °F 30.29 in Calm     96% 0.00 in BKN
03:30 59.5 °F 58.4 °F 30.29 in Calm     96% 0.00 in BKN
03:45 59.4 °F 58.3 °F 30.28 in Calm     96% 0.00 in BKN
04:00 59.5 °F 58.4 °F 30.28 in Calm     96% 0.00 in BKN
04:15 59.5 °F 58.3 °F 30.28 in Calm     96% 0.00 in -RA
04:30 59.5 °F 58.4 °F 30.28 in Calm     96% 0.00 in -RA
04:45 59.6 °F 58.5 °F 30.28 in Calm     96% 0.00 in -RA
05:00 59.6 °F 58.5 °F 30.28 in Calm     96% 0.00 in -RA
05:15 59.6 °F 58.7 °F 30.27 in Calm   2.0 mph 97% 0.00 in OVC
05:30 59.7 °F 58.8 °F 30.28 in Calm   1.0 mph 97% 0.01 in RA
05:45 59.7 °F 58.8 °F 30.28 in Calm   1.0 mph 97% 0.00 in OVC
06:00 59.8 °F 58.9 °F 30.28 in Calm     97% 0.00 in OVC
06:15 59.8 °F 58.9 °F 30.28 in Calm     97% 0.00 in -DZ
06:30 59.8 °F 58.9 °F 30.28 in Calm     97% 0.00 in -DZ
06:45 59.8 °F 58.9 °F 30.27 in Calm     97% 0.00 in -DZ
07:00 59.7 °F 58.9 °F 30.28 in Calm     97% 0.00 in -DZ
07:15 59.7 °F 58.8 °F 30.28 in NW 1.0 mph 1.0 mph 97% 0.00 in -DZ
07:30 59.6 °F 58.7 °F 30.28 in Calm   2.0 mph 97% 0.00 in -DZ
07:45 59.6 °F 58.8 °F 30.27 in Calm   1.0 mph 97% 0.00 in -DZ
08:00 59.9 °F 59.0 °F 30.27 in Calm   1.0 mph 97% 0.00 in -DZ
08:15 60.1 °F 59.2 °F 30.28 in NW 1.0 mph 2.0 mph 97% 0.00 in OVC
08:30 60.3 °F 59.5 °F 30.27 in Calm   1.0 mph 97% 0.00 in OVC
08:45 60.6 °F 59.7 °F 30.27 in Calm   2.0 mph 97% 0.00 in OVC
09:00 60.7 °F 59.8 °F 30.27 in Calm   2.0 mph 97% 0.00 in OVC
09:15 61.1 °F 60.2 °F 30.27 in Calm   1.0 mph 97% 0.00 in OVC
09:30 61.5 °F 60.6 °F 30.27 in Calm   1.0 mph 97% 0.00 in OVC
09:45 61.8 °F 60.9 °F 30.27 in Calm   2.0 mph 97% 0.00 in OVC
10:00 61.7 °F 60.5 °F 30.27 in Calm   3.0 mph 96% 0.00 in OVC
10:15 61.8 °F 60.6 °F 30.27 in Calm   2.0 mph 96% 0.00 in OVC
10:30 62.4 °F 61.2 °F 30.27 in Calm   1.0 mph 96% 0.00 in OVC
10:45 63.0 °F 61.5 °F 30.26 in Calm   2.0 mph 95% 0.00 in OVC
11:00 63.5 °F 61.7 °F 30.26 in Calm   3.0 mph 94% 0.00 in OVC
11:15 64.0 °F 61.6 °F 30.26 in NNW 1.0 mph 4.0 mph 92% 0.00 in BKN
11:30 64.0 °F 61.9 °F 30.26 in Calm   5.0 mph 93% 0.00 in BKN
11:45 64.6 °F 62.2 °F 30.25 in NW 2.0 mph 5.0 mph 92% 0.00 in BKN
12:00 65.7 °F 63.0 °F 30.25 in Calm   3.0 mph 91% 0.00 in BKN
12:15 65.6 °F 62.3 °F 30.25 in Calm   6.0 mph 89% 0.00 in BKN
12:30 66.4 °F 63.1 °F 30.24 in West 1.0 mph 5.0 mph 89% 0.00 in BKN
12:45 67.2 °F 63.2 °F 30.23 in WNW 1.0 mph 5.0 mph 87% 0.00 in BKN
13:00 67.9 °F 63.6 °F 30.23 in Calm   5.0 mph 86% 0.00 in BKN
13:15 68.3 °F 63.0 °F 30.22 in West 2.0 mph 5.0 mph 83% 0.00 in BKN
13:30 69.3 °F 63.9 °F 30.21 in Calm   4.0 mph 83% 0.00 in BKN
13:45 69.1 °F 63.0 °F 30.20 in West 1.0 mph 4.0 mph 81% 0.00 in BKN
14:00 69.0 °F 63.3 °F 30.20 in West 1.0 mph 4.0 mph 82% 0.00 in BKN
14:15 69.7 °F 63.2 °F 30.19 in SW 1.0 mph 4.0 mph 80% 0.00 in BKN
14:30 70.9 °F 63.3 °F 30.19 in SW 2.0 mph 6.0 mph 77% 0.00 in BKN
14:45 71.2 °F 63.2 °F 30.19 in SW 3.0 mph 7.0 mph 76% 0.00 in BKN
15:00 70.5 °F 62.9 °F 30.18 in Calm   5.0 mph 77% 0.00 in BKN
15:15 69.7 °F 62.9 °F 30.18 in WSW 1.0 mph 3.0 mph 79% 0.00 in BKN
15:30 69.8 °F 63.0 °F 30.18 in Calm   3.0 mph 79% 0.00 in BKN
15:45 69.7 °F 62.9 °F 30.17 in Calm   2.0 mph 79% 0.00 in BKN
16:00 69.9 °F 63.1 °F 30.18 in Calm   2.0 mph 79% 0.00 in BKN
16:15 69.7 °F 63.3 °F 30.17 in Calm   1.0 mph 80% 0.00 in BKN
16:30 69.9 °F 63.1 °F 30.17 in Calm   2.0 mph 79% 0.00 in BKN
16:45 69.9 °F 63.1 °F 30.17 in Calm   2.0 mph 79% 0.00 in BKN
17:00 69.6 °F 62.8 °F 30.16 in SW 1.0 mph 4.0 mph 79% 0.00 in BKN
17:15 69.3 °F 62.8 °F 30.16 in Calm   3.0 mph 80% 0.00 in BKN
17:30 69.2 °F 62.8 °F 30.17 in Calm   3.0 mph 80% 0.00 in BKN
17:45 68.9 °F 62.8 °F 30.17 in Calm   2.0 mph 81% 0.00 in BKN
18:00 68.7 °F 63.0 °F 30.17 in Calm   2.0 mph 82% 0.00 in BKN
18:15 68.4 °F 62.7 °F 30.18 in Calm   2.0 mph 82% 0.00 in BKN
18:30 68.2 °F 62.5 °F 30.18 in Calm   3.0 mph 82% 0.00 in BKN
18:45 68.1 °F 62.4 °F 30.18 in Calm   1.0 mph 82% 0.00 in BKN
19:00 67.9 °F 62.2 °F 30.19 in Calm   3.0 mph 82% 0.00 in BKN
19:15 67.9 °F 61.9 °F 30.19 in Calm   3.0 mph 81% 0.00 in BKN
19:30 67.8 °F 61.7 °F 30.19 in Calm     81% 0.00 in BKN
19:45 67.6 °F 61.6 °F 30.19 in Calm   1.0 mph 81% 0.00 in BKN
20:00 67.5 °F 61.9 °F 30.19 in Calm     82% 0.00 in BKN
20:15 67.4 °F 62.1 °F 30.20 in Calm   1.0 mph 83% 0.00 in BKN
20:30 67.3 °F 62.3 °F 30.19 in Calm   2.0 mph 84% 0.00 in BKN
20:45 67.1 °F 62.5 °F 30.19 in Calm   2.0 mph 85% 0.00 in BKN
21:00 67.1 °F 62.4 °F 30.19 in South 1.0 mph 2.0 mph 85% 0.00 in BKN
21:15 66.8 °F 62.2 °F 30.19 in Calm   4.0 mph 85% 0.00 in BKN
21:30 66.7 °F 62.0 °F 30.18 in Calm   2.0 mph 85% 0.00 in BKN
21:45 66.5 °F 61.8 °F 30.18 in Calm     85% 0.00 in BKN
22:00 66.0 °F 61.7 °F 30.18 in Calm     86% 0.00 in BKN
22:15 65.0 °F 61.0 °F 30.18 in Calm     87% 0.00 in BKN
22:30 64.0 °F 60.7 °F 30.18 in Calm   1.0 mph 89% 0.00 in BKN
22:45 63.8 °F 60.8 °F 30.18 in Calm   1.0 mph 90% 0.00 in BKN
23:00 63.8 °F 61.1 °F 30.18 in Calm     91% 0.00 in BKN
23:15 64.0 °F 61.3 °F 30.18 in Calm     91% 0.00 in BKN
23:30 64.3 °F 61.6 °F 30.18 in Calm   1.0 mph 91% 0.00 in BKN
23:45 64.4 °F 61.4 °F 30.18 in Calm     90% 0.00 in BKN
TarryTown NY Weather
Compliments of Weather Underground - 1.5 mb